createdAt,value
2019-05-13T00:00:54.007Z,1.22
2019-05-13T00:03:23.996Z,1.52
2019-05-13T00:05:53.679Z,1.40
2019-05-13T00:08:24.859Z,1.50
2019-05-13T00:10:54.267Z,1.75
2019-05-13T00:13:23.778Z,1.72
2019-05-13T00:15:54.334Z,1.20
2019-05-13T00:18:24.895Z,1.20
2019-05-13T00:20:54.358Z,1.37
2019-05-13T00:23:23.631Z,1.65
2019-05-13T00:25:54.582Z,1.87
2019-05-13T00:28:24.210Z,1.35
2019-05-13T00:30:54.276Z,1.70
2019-05-13T00:33:24.316Z,2.77
2019-05-13T00:35:53.782Z,1.62
2019-05-13T00:38:24.519Z,1.65
2019-05-13T00:40:54.683Z,1.20
2019-05-13T00:43:24.526Z,1.50
2019-05-13T00:45:53.880Z,1.62
2019-05-13T00:48:23.440Z,1.45
2019-05-13T00:50:54.454Z,2.20
2019-05-13T00:53:23.938Z,1.65
2019-05-13T00:55:53.644Z,1.30
2019-05-13T00:58:24.208Z,1.80
2019-05-13T01:00:54.628Z,1.90
2019-05-13T01:03:27.850Z,1.30
2019-05-13T01:05:55.078Z,1.85
2019-05-13T01:08:24.799Z,2.15
2019-05-13T01:10:54.035Z,1.55
2019-05-13T01:13:23.746Z,1.80
2019-05-13T01:15:54.436Z,2.17
2019-05-13T01:18:23.711Z,2.10
2019-05-13T01:20:53.836Z,2.00
2019-05-13T01:23:24.033Z,2.27
2019-05-13T01:25:54.515Z,2.27
2019-05-13T01:28:24.120Z,1.85
2019-05-13T01:30:53.982Z,1.80
2019-05-13T01:33:24.705Z,1.90
2019-05-13T01:35:54.027Z,2.25
2019-05-13T01:38:24.125Z,2.05
2019-05-13T01:40:53.943Z,1.85
2019-05-13T01:43:24.572Z,2.17
2019-05-13T01:45:53.881Z,2.05
2019-05-13T01:48:24.127Z,1.80
2019-05-13T01:50:53.523Z,2.12
2019-05-13T01:53:24.366Z,1.75
2019-05-13T01:55:53.800Z,1.75
2019-05-13T01:58:23.728Z,1.95
2019-05-13T02:00:55.217Z,1.85
2019-05-13T02:03:24.586Z,2.02
2019-05-13T02:05:54.392Z,1.90
2019-05-13T02:08:24.556Z,1.75
2019-05-13T02:10:55.189Z,2.10
2019-05-13T02:13:25.194Z,2.15
2019-05-13T02:15:55.619Z,2.15
2019-05-13T02:18:25.081Z,1.72
2019-05-13T02:20:56.018Z,2.35
2019-05-13T02:23:25.491Z,2.30
2019-05-13T02:25:54.883Z,2.40
2019-05-13T02:28:24.939Z,2.12
2019-05-13T02:30:56.658Z,2.50
2019-05-13T02:33:25.500Z,2.45
2019-05-13T02:35:54.759Z,2.33
2019-05-13T02:38:29.761Z,2.37
2019-05-13T02:40:54.965Z,1.70
2019-05-13T02:43:24.447Z,2.20
2019-05-13T02:45:54.305Z,1.80
2019-05-13T02:48:24.324Z,2.20
2019-05-13T02:50:54.597Z,2.20
2019-05-13T02:53:24.547Z,2.15
2019-05-13T02:55:54.168Z,1.90
2019-05-13T02:58:24.665Z,2.80
2019-05-13T03:00:54.452Z,2.20
2019-05-13T03:03:24.011Z,2.52
2019-05-13T03:05:53.874Z,2.20
2019-05-13T03:08:39.341Z,2.35
2019-05-13T03:10:55.343Z,2.27
2019-05-13T03:13:24.592Z,2.30
2019-05-13T03:16:07.293Z,1.92
2019-05-13T03:18:36.474Z,3.00
2019-05-13T03:21:05.657Z,2.33
2019-05-13T03:23:34.870Z,2.75
2019-05-13T03:26:04.186Z,2.40
2019-05-13T03:28:33.991Z,2.60
2019-05-13T03:31:06.754Z,2.85
2019-05-13T03:33:36.729Z,2.72
2019-05-13T03:36:07.558Z,2.75
2019-05-13T03:38:58.821Z,2.40
2019-05-13T03:41:12.110Z,2.40
2019-05-13T03:43:42.979Z,3.02
2019-05-13T03:46:14.722Z,2.98
2019-05-13T03:48:44.838Z,3.40
2019-05-13T03:51:14.228Z,2.80
2019-05-13T03:53:44.511Z,2.72
2019-05-13T03:56:13.901Z,2.62
2019-05-13T03:58:43.878Z,3.08
2019-05-13T04:01:15.698Z,2.80
2019-05-13T04:03:45.398Z,2.90
2019-05-13T04:06:14.784Z,2.72
2019-05-13T04:08:44.314Z,3.45
2019-05-13T04:11:14.370Z,2.65
2019-05-13T04:13:43.737Z,2.02
2019-05-13T04:16:13.403Z,2.37
2019-05-13T04:18:43.349Z,2.50
2019-05-13T04:21:13.510Z,2.62
2019-05-13T04:23:43.254Z,2.98
2019-05-13T04:26:14.973Z,2.85
2019-05-13T04:28:44.093Z,2.92
2019-05-13T04:31:14.404Z,2.80
2019-05-13T04:33:43.774Z,2.72
2019-05-13T04:36:13.757Z,3.17
2019-05-13T04:38:44.610Z,3.00
2019-05-13T04:41:14.250Z,2.30
2019-05-13T04:43:44.370Z,4.37
2019-05-13T04:46:14.497Z,2.87
2019-05-13T04:48:44.629Z,2.55
2019-05-13T04:51:14.331Z,2.98
2019-05-13T04:53:44.328Z,3.10
2019-05-13T04:56:14.351Z,3.22
2019-05-13T04:58:43.900Z,2.65
2019-05-13T05:01:40.206Z,2.90
2019-05-13T05:04:30.449Z,3.83
2019-05-13T05:07:22.243Z,2.65
2019-05-13T05:10:17.438Z,2.72
2019-05-13T05:13:32.361Z,3.15
2019-05-13T05:17:02.922Z,3.33
2019-05-13T05:23:36.310Z,3.40
2019-05-13T05:27:01.379Z,3.50
2019-05-13T05:33:36.966Z,3.55
2019-05-13T05:36:33.022Z,2.47
2019-05-13T05:39:24.653Z,2.75
2019-05-13T05:41:56.367Z,3.45
2019-05-13T05:44:27.622Z,3.75
2019-05-13T05:46:58.961Z,2.60
2019-05-13T05:49:31.808Z,3.85
2019-05-13T05:52:05.650Z,3.47
2019-05-13T05:54:36.468Z,3.22
2019-05-13T05:57:06.996Z,3.35
2019-05-13T05:59:42.589Z,3.05
2019-05-13T06:02:12.145Z,3.00
2019-05-13T06:04:43.317Z,4.70
2019-05-13T06:07:14.254Z,2.70
2019-05-13T06:09:48.827Z,2.30
2019-05-13T06:12:18.299Z,2.67
2019-05-13T06:14:47.700Z,3.45
2019-05-13T06:17:17.574Z,4.33
2019-05-13T06:19:51.254Z,2.80
2019-05-13T06:22:21.621Z,2.87
2019-05-13T06:24:52.216Z,2.65
2019-05-13T06:27:21.940Z,3.20
2019-05-13T06:29:54.582Z,3.25
2019-05-13T06:32:26.475Z,2.80
2019-05-13T06:34:55.745Z,2.95
2019-05-13T06:37:25.146Z,2.50
2019-05-13T06:39:56.447Z,2.10
2019-05-13T06:42:29.406Z,3.17
2019-05-13T06:45:01.877Z,2.55
2019-05-13T06:47:35.769Z,2.60
2019-05-13T06:50:06.562Z,2.80
2019-05-13T06:52:37.132Z,3.02
2019-05-13T06:55:25.854Z,3.45
2019-05-13T07:01:32.312Z,3.15
2019-05-13T07:04:03.186Z,3.00
2019-05-13T07:06:32.625Z,3.27
2019-05-13T07:09:01.938Z,2.67
2019-05-13T07:11:33.860Z,2.52
2019-05-13T07:14:03.451Z,3.92
2019-05-13T07:16:32.812Z,2.62
2019-05-13T07:19:03.453Z,3.62
2019-05-13T07:21:32.909Z,3.25
2019-05-13T07:24:02.517Z,2.35
2019-05-13T07:26:32.861Z,2.80
2019-05-13T07:29:03.555Z,3.58
2019-05-13T07:31:33.600Z,3.27
2019-05-13T07:34:02.861Z,3.10
2019-05-13T07:36:32.258Z,4.40
2019-05-13T07:39:02.515Z,2.80
2019-05-13T07:41:38.996Z,3.50
2019-05-13T07:44:02.830Z,3.65
2019-05-13T07:46:32.391Z,3.27
2019-05-13T07:49:02.236Z,3.40
2019-05-13T07:51:32.066Z,3.52
2019-05-13T07:54:02.279Z,2.98
2019-05-13T07:56:32.444Z,3.17
2019-05-13T07:59:03.086Z,3.05
2019-05-13T08:01:32.885Z,3.17
2019-05-13T08:04:02.465Z,3.55
2019-05-13T08:06:32.450Z,3.05
2019-05-13T08:09:02.091Z,3.25
2019-05-13T08:11:35.346Z,3.22
2019-05-13T08:14:02.371Z,3.92
2019-05-13T08:16:32.373Z,2.50
2019-05-13T08:19:02.486Z,2.95
2019-05-13T08:21:32.347Z,3.58
2019-05-13T08:24:02.642Z,3.15
2019-05-13T08:26:32.435Z,3.05
2019-05-13T08:29:05.551Z,3.40
2019-05-13T08:31:32.927Z,3.20
2019-05-13T08:34:02.665Z,3.85
2019-05-13T08:36:32.826Z,3.10
2019-05-13T08:39:02.769Z,3.62
2019-05-13T08:41:32.443Z,3.33
2019-05-13T08:44:04.117Z,2.75
2019-05-13T08:46:33.617Z,3.10
2019-05-13T08:49:03.966Z,3.15
2019-05-13T08:51:34.844Z,3.35
2019-05-13T08:54:04.710Z,2.92
2019-05-13T08:56:34.149Z,3.45
2019-05-13T08:59:03.413Z,3.30
2019-05-13T09:01:34.193Z,3.15
2019-05-13T09:04:07.396Z,3.65
2019-05-13T09:06:37.638Z,2.85
2019-05-13T09:09:08.287Z,2.92
2019-05-13T09:11:37.801Z,2.12
2019-05-13T09:14:07.395Z,3.45
2019-05-13T09:16:36.728Z,3.98
2019-05-13T09:19:06.101Z,2.72
2019-05-13T09:21:35.383Z,3.35
2019-05-13T09:24:20.850Z,3.15
2019-05-13T09:26:35.779Z,2.55
2019-05-13T09:29:05.444Z,3.00
2019-05-13T09:31:35.080Z,2.55
2019-05-13T09:34:05.137Z,3.05
2019-05-13T09:36:34.386Z,2.58
2019-05-13T09:39:05.309Z,1.95
2019-05-13T09:41:40.271Z,2.40
2019-05-13T09:44:05.740Z,1.85
2019-05-13T09:46:35.141Z,1.98
2019-05-13T09:49:16.253Z,1.90
2019-05-13T09:51:35.501Z,2.00
2019-05-13T09:54:06.967Z,2.02
2019-05-13T09:56:38.455Z,1.80
2019-05-13T09:59:07.823Z,1.60
2019-05-13T10:01:37.425Z,2.05
2019-05-13T10:04:06.849Z,2.20
2019-05-13T10:06:36.206Z,1.70
2019-05-13T10:09:07.361Z,2.52
2019-05-13T10:11:36.638Z,2.40
2019-05-13T10:14:08.085Z,2.50
2019-05-13T10:16:37.325Z,2.62
2019-05-13T10:19:08.949Z,2.30
2019-05-13T10:21:38.455Z,1.77
2019-05-13T10:24:08.098Z,2.35
2019-05-13T10:26:37.842Z,2.70
2019-05-13T10:29:07.185Z,2.62
2019-05-13T10:31:36.570Z,2.00
2019-05-13T10:34:05.902Z,2.58
2019-05-13T10:36:35.397Z,2.15
2019-05-13T10:39:06.856Z,1.77
2019-05-13T10:41:36.229Z,2.20
2019-05-13T10:44:05.661Z,2.05
2019-05-13T10:46:34.932Z,2.40
2019-05-13T10:49:04.351Z,2.50
2019-05-13T10:51:33.968Z,1.95
2019-05-13T10:54:03.392Z,1.90
2019-05-13T10:56:33.128Z,2.10
2019-05-13T10:59:03.163Z,2.08
2019-05-13T11:01:32.891Z,2.17
2019-05-13T11:04:02.798Z,2.22
2019-05-13T11:06:32.589Z,1.82
2019-05-13T11:09:02.727Z,2.30
2019-05-13T11:11:33.186Z,2.10
2019-05-13T11:14:10.027Z,1.98
2019-05-13T11:16:33.885Z,2.52
2019-05-13T11:19:03.132Z,2.55
2019-05-13T11:21:32.399Z,2.20
2019-05-13T11:24:03.294Z,2.17
2019-05-13T11:26:36.295Z,1.95
2019-05-13T11:29:04.268Z,2.33
2019-05-13T11:31:33.675Z,1.90
2019-05-13T11:34:02.978Z,1.72
2019-05-13T11:36:33.322Z,1.70
2019-05-13T11:39:03.208Z,1.80
2019-05-13T11:41:32.759Z,2.27
2019-05-13T11:44:12.822Z,2.10
2019-05-13T11:46:35.216Z,2.20
2019-05-13T11:49:04.524Z,2.35
2019-05-13T11:51:33.869Z,2.25
2019-05-13T11:54:03.285Z,1.70
2019-05-13T11:56:33.635Z,2.05
2019-05-13T11:59:04.341Z,1.77
2019-05-13T12:01:34.277Z,1.90
2019-05-13T12:04:03.668Z,1.80
2019-05-13T12:06:34.383Z,1.70
2019-05-13T12:09:06.167Z,1.60
2019-05-13T12:11:35.427Z,1.85
2019-05-13T12:14:04.859Z,1.70
2019-05-13T12:16:34.997Z,2.00
2019-05-13T12:19:04.616Z,1.60
2019-05-13T12:21:41.609Z,1.30
2019-05-13T12:24:10.519Z,2.37
2019-05-13T12:26:36.375Z,1.45
2019-05-13T12:29:17.619Z,2.08
2019-05-13T12:31:39.065Z,1.85
2019-05-13T12:34:08.319Z,2.00
2019-05-13T12:36:38.171Z,1.85
2019-05-13T12:39:07.948Z,2.60
2019-05-13T12:41:37.223Z,1.80
2019-05-13T12:44:06.455Z,2.50
2019-05-13T12:46:35.811Z,1.67
2019-05-13T12:49:05.442Z,1.90
2019-05-13T12:51:36.148Z,2.33
2019-05-13T12:54:05.787Z,1.70
2019-05-13T12:56:35.118Z,2.30
2019-05-13T12:59:04.418Z,2.02
2019-05-13T13:01:35.809Z,2.20
2019-05-13T13:04:05.425Z,1.85
2019-05-13T13:06:40.714Z,1.90
2019-05-13T13:09:06.598Z,1.70
2019-05-13T13:11:36.155Z,2.25
2019-05-13T13:14:11.334Z,1.50
2019-05-13T13:16:42.134Z,1.82
2019-05-13T13:19:14.646Z,2.02
2019-05-13T13:21:41.931Z,1.90
2019-05-13T13:24:12.322Z,2.00
2019-05-13T13:26:42.719Z,1.80
2019-05-13T13:29:12.659Z,1.70
2019-05-13T13:31:45.333Z,1.60
2019-05-13T13:34:18.429Z,1.82
2019-05-13T13:36:47.384Z,1.80
2019-05-13T13:39:16.717Z,1.60
2019-05-13T13:41:47.004Z,2.22
2019-05-13T13:44:16.800Z,1.95
2019-05-13T13:46:49.569Z,1.65
2019-05-13T13:49:17.089Z,2.12
2019-05-13T13:51:46.388Z,1.37
2019-05-13T13:54:15.719Z,1.80
2019-05-13T13:56:45.050Z,1.90
2019-05-13T13:59:14.810Z,1.50
2019-05-13T14:01:46.468Z,1.90
2019-05-13T14:04:16.614Z,2.55
2019-05-13T14:09:16.963Z,1.90
2019-05-13T14:11:46.243Z,1.75
2019-05-13T14:14:21.672Z,2.37
2019-05-13T14:16:51.899Z,2.15
2019-05-13T14:19:21.859Z,1.72
2019-05-13T14:21:52.692Z,2.05
2019-05-13T14:24:24.121Z,1.75
2019-05-13T14:26:53.375Z,1.85
2019-05-13T14:29:37.539Z,2.10
2019-05-13T14:31:54.143Z,2.05
2019-05-13T14:34:23.363Z,1.80
2019-05-13T14:36:52.637Z,2.40
2019-05-13T14:39:22.276Z,1.95
2019-05-13T14:41:52.539Z,1.35
2019-05-13T14:44:22.164Z,2.02
2019-05-13T14:46:52.405Z,2.05
2019-05-13T14:49:22.531Z,1.77
2019-05-13T14:51:55.880Z,1.85
2019-05-13T14:54:23.071Z,1.50
2019-05-13T14:56:52.399Z,1.20
2019-05-13T14:59:23.797Z,1.70
2019-05-13T15:01:53.975Z,1.67
2019-05-13T15:04:24.279Z,1.37
2019-05-13T15:06:53.553Z,1.50
2019-05-13T15:09:23.131Z,1.25
2019-05-13T15:11:53.684Z,1.80
2019-05-13T15:14:22.979Z,1.57
2019-05-13T15:17:02.788Z,1.55
2019-05-13T15:19:24.005Z,1.30
2019-05-13T15:21:53.482Z,1.70
2019-05-13T15:24:23.829Z,1.70
2019-05-13T15:26:54.067Z,1.82
2019-05-13T15:29:24.149Z,1.65
2019-05-13T15:31:54.153Z,1.50
2019-05-13T15:34:23.904Z,2.42
2019-05-13T15:36:53.264Z,1.62
2019-05-13T15:39:25.180Z,1.65
2019-05-13T15:42:39.720Z,1.30
2019-05-13T15:45:12.473Z,1.47
2019-05-13T15:47:41.980Z,2.08
2019-05-13T15:50:12.391Z,1.70
2019-05-13T15:52:51.176Z,1.02
2019-05-13T15:55:21.395Z,2.15
2019-05-13T15:57:51.897Z,1.22
2019-05-13T16:00:22.053Z,1.22
2019-05-13T16:02:55.795Z,1.42
2019-05-13T16:05:26.630Z,1.35
2019-05-13T16:07:58.143Z,1.30
2019-05-13T16:10:30.199Z,1.27
2019-05-13T16:12:59.469Z,1.50
2019-05-13T16:16:17.253Z,1.90
2019-05-13T16:18:56.537Z,1.67
2019-05-13T16:24:17.497Z,1.20
2019-05-13T16:30:27.990Z,1.47
2019-05-13T16:33:12.260Z,1.62
2019-05-13T16:35:42.485Z,1.72
2019-05-13T16:38:14.388Z,1.30
2019-05-13T16:40:43.979Z,1.52
2019-05-13T16:43:16.178Z,1.57
2019-05-13T16:45:45.574Z,1.45
2019-05-13T16:48:14.855Z,1.72
2019-05-13T16:54:06.210Z,1.70
2019-05-13T16:56:42.098Z,1.32
2019-05-13T17:05:34.026Z,2.17
2019-05-13T17:08:39.394Z,1.98
2019-05-13T17:11:15.562Z,2.00
2019-05-13T17:13:44.783Z,3.20
2019-05-13T17:16:36.606Z,2.40
2019-05-13T17:19:11.860Z,2.00
2019-05-13T17:22:13.050Z,2.02
2019-05-13T17:25:35.382Z,1.65
2019-05-13T17:28:04.884Z,1.98
2019-05-13T17:31:32.530Z,1.50
2019-05-13T17:34:27.075Z,1.70
2019-05-13T17:36:56.280Z,2.00
2019-05-13T17:39:25.594Z,1.72
2019-05-13T17:41:54.815Z,2.00
2019-05-13T17:44:31.807Z,2.40
2019-05-13T17:47:02.824Z,2.17
2019-05-13T17:49:35.424Z,1.52
2019-05-13T17:52:07.322Z,2.50
2019-05-13T18:01:01.461Z,1.87
2019-05-13T18:03:32.056Z,2.17
2019-05-13T18:08:55.539Z,1.60
2019-05-13T18:11:26.027Z,2.92
2019-05-13T18:13:55.330Z,1.70
2019-05-13T18:16:25.677Z,2.12
2019-05-13T18:18:55.880Z,2.10
2019-05-13T18:21:32.034Z,2.17
2019-05-13T18:24:03.300Z,2.30
2019-05-13T18:26:32.586Z,2.20
2019-05-13T18:29:03.893Z,2.05
2019-05-13T18:31:33.268Z,2.17
2019-05-13T18:34:02.975Z,2.40
2019-05-13T18:36:32.234Z,2.02
2019-05-13T18:39:01.771Z,2.35
2019-05-13T18:41:31.688Z,2.15
2019-05-13T18:44:01.458Z,2.95
2019-05-13T18:46:32.223Z,2.45
2019-05-13T18:49:02.305Z,2.67
2019-05-13T18:51:31.766Z,3.00
2019-05-13T18:54:04.111Z,2.55
2019-05-13T19:00:21.784Z,2.58
2019-05-13T19:02:52.913Z,2.52
2019-05-13T19:05:22.455Z,2.20
2019-05-13T19:07:52.777Z,2.62
2019-05-13T19:10:22.260Z,2.20
2019-05-13T19:12:51.781Z,2.67
2019-05-13T19:15:27.337Z,2.12
2019-05-13T19:17:58.797Z,2.67
2019-05-13T19:20:31.354Z,2.72
2019-05-13T19:23:43.120Z,2.72
2019-05-13T19:26:12.388Z,2.70
2019-05-13T19:28:53.402Z,3.17
2019-05-13T19:31:47.512Z,2.50
2019-05-13T19:34:16.732Z,2.75
2019-05-13T19:43:15.608Z,2.30
2019-05-13T19:45:57.386Z,2.95
2019-05-13T19:51:04.853Z,3.30
2019-05-13T19:53:41.174Z,3.87
2019-05-13T19:56:11.909Z,2.87
2019-05-13T19:58:43.400Z,2.55
2019-05-13T20:01:27.638Z,3.25
2019-05-13T20:04:47.456Z,3.70
2019-05-13T20:07:16.779Z,3.62
2019-05-13T20:09:46.290Z,3.98
2019-05-13T20:12:15.954Z,3.45
2019-05-13T20:15:01.390Z,3.35
2019-05-13T20:17:27.416Z,2.42
2019-05-13T20:19:56.614Z,2.65
2019-05-13T20:22:25.857Z,2.27
2019-05-13T20:25:12.833Z,2.87
2019-05-13T20:27:42.280Z,2.42
2019-05-13T20:30:16.900Z,2.60
2019-05-13T20:39:59.292Z,2.75
2019-05-13T20:43:08.482Z,4.10
2019-05-13T20:45:43.656Z,3.50
2019-05-13T20:48:41.043Z,4.25
2019-05-13T20:51:17.892Z,4.12
2019-05-13T20:53:51.781Z,3.52
2019-05-13T21:08:06.884Z,2.47
2019-05-13T21:10:36.247Z,3.37
2019-05-13T21:13:41.392Z,2.55
2019-05-13T21:16:11.446Z,2.30
2019-05-13T21:18:42.104Z,2.33
2019-05-13T21:21:11.761Z,2.70
2019-05-13T21:23:42.632Z,2.42
2019-05-13T21:30:02.883Z,2.50
2019-05-13T21:32:32.878Z,2.52
2019-05-13T21:35:05.882Z,2.35
2019-05-13T21:37:36.735Z,1.95
2019-05-13T21:40:08.350Z,2.98
2019-05-13T21:43:12.519Z,2.08
2019-05-13T21:45:41.922Z,2.42
2019-05-13T21:48:25.649Z,2.55
2019-05-13T21:50:58.428Z,2.85
2019-05-13T21:53:27.680Z,2.40
2019-05-13T21:56:05.163Z,2.90
2019-05-13T21:58:34.407Z,2.85
2019-05-13T22:01:03.867Z,2.45
2019-05-13T22:03:34.824Z,2.55
2019-05-13T22:06:07.174Z,2.05
2019-05-13T22:08:36.258Z,2.15
2019-05-13T22:11:27.129Z,2.27
2019-05-13T22:14:07.510Z,2.00
2019-05-13T22:16:41.210Z,1.77
2019-05-13T22:19:12.289Z,2.20
2019-05-13T22:21:42.334Z,1.92
2019-05-13T22:24:12.667Z,1.80
2019-05-13T22:26:42.175Z,1.90
2019-05-13T22:29:12.940Z,2.00
2019-05-13T22:31:42.393Z,2.47
2019-05-13T22:34:12.163Z,1.85
2019-05-13T22:36:45.115Z,2.35
2019-05-13T22:39:21.897Z,1.90
2019-05-13T22:41:52.417Z,1.85
2019-05-13T22:44:21.823Z,2.55
2019-05-13T22:46:51.766Z,2.47
2019-05-13T22:49:22.134Z,2.17
2019-05-13T22:51:53.372Z,2.10
2019-05-13T22:54:22.592Z,2.50
2019-05-13T22:56:52.329Z,2.40
2019-05-13T22:59:24.094Z,2.52
2019-05-13T23:01:56.215Z,2.65
2019-05-13T23:04:25.413Z,1.70
2019-05-13T23:06:54.631Z,2.25
2019-05-13T23:09:23.856Z,2.20
2019-05-13T23:11:53.080Z,2.50
2019-05-13T23:14:22.254Z,2.47
2019-05-13T23:16:51.494Z,2.15
2019-05-13T23:19:21.724Z,2.30
2019-05-13T23:21:51.184Z,1.85
2019-05-13T23:24:21.867Z,2.15
2019-05-13T23:26:51.655Z,2.27
2019-05-13T23:29:21.374Z,2.52
2019-05-13T23:31:52.047Z,2.20
2019-05-13T23:34:22.305Z,2.17
2019-05-13T23:36:51.755Z,2.05
2019-05-13T23:39:21.625Z,2.42
2019-05-13T23:41:52.175Z,2.20
2019-05-13T23:44:27.178Z,2.05
2019-05-13T23:46:52.403Z,2.02
2019-05-13T23:49:21.597Z,2.20
2019-05-13T23:51:52.018Z,1.95
2019-05-13T23:54:21.526Z,2.17
2019-05-13T23:56:50.868Z,2.05
2019-05-13T23:59:21.917Z,1.85
